createdAt,value
2023-01-30T00:02:18.234Z,25.10
2023-01-30T00:04:47.615Z,24.33
2023-01-30T00:07:15.710Z,23.75
2023-01-30T00:09:43.766Z,24.85
2023-01-30T00:12:11.777Z,24.80
2023-01-30T00:14:39.849Z,25.02
2023-01-30T00:17:07.880Z,24.95
2023-01-30T00:19:35.939Z,24.00
2023-01-30T00:22:05.379Z,25.17
2023-01-30T00:24:33.505Z,25.43
2023-01-30T00:27:01.941Z,24.55
2023-01-30T00:29:29.976Z,25.77
2023-01-30T00:31:58.084Z,24.77
2023-01-30T00:34:26.233Z,26.23
2023-01-30T00:37:07.412Z,25.25
2023-01-30T00:39:37.373Z,25.08
2023-01-30T00:42:23.173Z,26.27
2023-01-30T00:45:08.635Z,26.52
2023-01-30T00:47:36.702Z,25.42
2023-01-30T00:50:05.210Z,25.85
2023-01-30T00:52:33.215Z,26.75
2023-01-30T00:55:02.670Z,26.05
2023-01-30T00:57:30.684Z,27.10
2023-01-30T00:59:58.811Z,28.48
2023-01-30T01:02:26.932Z,26.90
2023-01-30T01:04:54.954Z,27.13
2023-01-30T01:07:23.064Z,27.83
2023-01-30T01:09:51.097Z,27.25
2023-01-30T01:12:21.527Z,28.25
2023-01-30T01:14:49.565Z,28.92
2023-01-30T01:17:17.849Z,29.40
2023-01-30T01:19:45.862Z,29.20
2023-01-30T01:22:13.988Z,29.83
2023-01-30T01:24:42.049Z,29.55
2023-01-30T01:27:10.447Z,29.65
2023-01-30T01:29:39.821Z,31.20
2023-01-30T01:32:08.010Z,31.37
2023-01-30T01:34:36.112Z,31.65
2023-01-30T01:37:04.140Z,30.50
2023-01-30T01:39:46.073Z,33.53
2023-01-30T01:42:14.333Z,32.15
2023-01-30T01:45:17.203Z,31.90
2023-01-30T01:47:58.603Z,33.83
2023-01-30T01:50:39.570Z,32.05
2023-01-30T01:53:11.327Z,32.33
2023-01-30T01:55:42.589Z,32.38
2023-01-30T01:58:15.069Z,32.30
2023-01-30T02:00:44.895Z,30.60
2023-01-30T02:03:18.277Z,30.70
2023-01-30T02:05:54.274Z,29.42
2023-01-30T02:08:28.174Z,28.90
2023-01-30T02:11:04.188Z,28.70
2023-01-30T02:13:33.434Z,27.45
2023-01-30T02:16:05.992Z,27.27
2023-01-30T02:18:40.841Z,27.80
2023-01-30T02:21:44.207Z,26.17
2023-01-30T02:24:58.218Z,24.90
2023-01-30T02:28:16.557Z,24.38
2023-01-30T02:31:08.814Z,24.05
2023-01-30T02:33:52.648Z,23.70
2023-01-30T02:36:35.693Z,23.60
2023-01-30T02:39:14.995Z,24.05
2023-01-30T02:41:54.971Z,24.05
2023-01-30T02:44:31.215Z,24.02
2023-01-30T02:47:09.018Z,24.63
2023-01-30T02:49:42.809Z,25.30
2023-01-30T02:52:16.805Z,25.43
2023-01-30T02:54:45.484Z,26.42
2023-01-30T02:57:22.211Z,26.25
2023-01-30T02:59:55.490Z,26.40
2023-01-30T03:03:10.833Z,26.57
2023-01-30T03:06:22.154Z,26.85
2023-01-30T03:09:09.734Z,27.65
2023-01-30T03:11:50.679Z,26.77
2023-01-30T03:14:27.436Z,27.50
2023-01-30T03:17:00.565Z,27.70
2023-01-30T03:19:31.000Z,28.13
2023-01-30T03:21:59.072Z,27.15
2023-01-30T03:24:27.354Z,28.08
2023-01-30T03:27:03.334Z,29.25
2023-01-30T03:29:31.396Z,30.30
2023-01-30T03:31:59.526Z,30.80
2023-01-30T03:34:28.966Z,32.67
2023-01-30T03:36:57.310Z,33.53
2023-01-30T03:39:26.581Z,33.42
2023-01-30T03:41:55.324Z,34.10
2023-01-30T03:44:23.475Z,34.35
2023-01-30T03:46:51.501Z,36.15
2023-01-30T03:49:20.618Z,34.88
2023-01-30T03:51:50.232Z,33.05
2023-01-30T03:54:18.329Z,34.17
2023-01-30T03:56:46.361Z,35.13
2023-01-30T03:59:14.592Z,33.72
2023-01-30T04:01:42.631Z,33.28
2023-01-30T04:04:10.714Z,33.72
2023-01-30T04:06:38.718Z,33.45
2023-01-30T04:09:08.114Z,34.13
2023-01-30T04:11:36.165Z,33.70
2023-01-30T04:14:04.314Z,31.98
2023-01-30T04:16:32.386Z,31.27
2023-01-30T04:19:00.401Z,31.77
2023-01-30T04:21:28.427Z,31.08
2023-01-30T04:23:56.464Z,30.95
2023-01-30T04:26:26.014Z,31.67
2023-01-30T04:28:54.158Z,31.17
2023-01-30T04:31:22.248Z,31.08
2023-01-30T04:33:50.303Z,29.92
2023-01-30T04:36:18.525Z,30.25
2023-01-30T04:38:46.531Z,27.65
2023-01-30T04:41:14.602Z,25.75
2023-01-30T04:43:44.143Z,26.25
2023-01-30T04:46:12.193Z,25.83
2023-01-30T04:48:40.402Z,24.25
2023-01-30T04:51:08.588Z,22.80
2023-01-30T04:53:36.657Z,22.58
2023-01-30T04:56:05.360Z,20.67
2023-01-30T04:58:33.393Z,20.42
2023-01-30T05:01:17.454Z,20.02
2023-01-30T05:03:45.491Z,18.70
2023-01-30T05:06:13.513Z,18.88
2023-01-30T05:08:41.534Z,18.83
2023-01-30T05:11:09.577Z,18.95
2023-01-30T05:13:37.584Z,18.65
2023-01-30T05:16:06.139Z,18.17
2023-01-30T05:18:35.542Z,19.07
2023-01-30T05:21:09.456Z,18.35
2023-01-30T05:23:37.591Z,17.93
2023-01-30T05:26:06.379Z,18.25
2023-01-30T05:28:34.766Z,18.48
2023-01-30T05:31:03.274Z,18.27
2023-01-30T05:33:31.582Z,17.75
2023-01-30T05:36:01.418Z,18.13
2023-01-30T05:38:29.817Z,17.97
2023-01-30T05:41:02.097Z,17.30
2023-01-30T05:43:31.219Z,16.88
2023-01-30T05:46:01.907Z,16.08
2023-01-30T05:48:30.712Z,16.98
2023-01-30T05:51:01.687Z,15.80
2023-01-30T05:53:34.507Z,14.98
2023-01-30T05:56:06.369Z,15.07
2023-01-30T05:58:34.629Z,13.35
2023-01-30T06:01:04.342Z,12.27
2023-01-30T06:03:33.317Z,12.05
2023-01-30T06:06:05.519Z,11.35
2023-01-30T06:08:34.275Z,11.40
2023-01-30T06:11:02.793Z,11.45
2023-01-30T06:13:31.069Z,10.82
2023-01-30T06:15:59.325Z,9.98
2023-01-30T06:18:28.028Z,9.65
2023-01-30T06:20:56.417Z,9.68
2023-01-30T06:23:25.975Z,10.70
2023-01-30T06:25:55.636Z,11.30
2023-01-30T06:28:25.657Z,10.35
2023-01-30T06:30:54.448Z,9.80
2023-01-30T06:33:22.821Z,10.00
2023-01-30T06:35:52.701Z,9.73
2023-01-30T06:38:21.476Z,9.80
2023-01-30T06:40:51.849Z,9.15
2023-01-30T06:43:20.015Z,9.20
2023-01-30T06:45:48.086Z,8.35
2023-01-30T06:48:16.240Z,8.73
2023-01-30T06:50:44.530Z,8.13
2023-01-30T06:53:12.675Z,8.70
2023-01-30T06:55:40.729Z,8.13
2023-01-30T06:58:15.575Z,8.65
2023-01-30T07:00:44.680Z,8.30
2023-01-30T07:03:14.374Z,8.48
2023-01-30T07:05:45.050Z,9.02
2023-01-30T07:08:14.472Z,8.35
2023-01-30T07:10:44.113Z,9.38
2023-01-30T07:13:14.153Z,8.70
2023-01-30T07:15:42.201Z,7.80
2023-01-30T07:18:10.279Z,7.95
2023-01-30T07:20:38.326Z,7.20
2023-01-30T07:23:06.394Z,6.93
2023-01-30T07:25:34.430Z,5.97
2023-01-30T07:28:03.810Z,6.80
2023-01-30T07:30:36.306Z,7.13
2023-01-30T07:33:06.636Z,5.95
2023-01-30T07:35:37.938Z,5.80
2023-01-30T07:38:06.776Z,6.20
2023-01-30T07:40:35.556Z,5.00
2023-01-30T07:43:06.753Z,4.80
2023-01-30T07:45:41.374Z,5.15
2023-01-30T07:48:11.764Z,5.20
2023-01-30T07:50:40.225Z,5.80
2023-01-30T07:53:11.804Z,5.77
2023-01-30T07:55:40.240Z,7.63
2023-01-30T07:58:08.420Z,7.35
2023-01-30T08:00:37.954Z,7.40
2023-01-30T08:03:05.941Z,6.43
2023-01-30T08:05:34.008Z,5.78
2023-01-30T08:08:02.004Z,5.10
2023-01-30T08:10:30.058Z,5.15
2023-01-30T08:12:58.082Z,5.00
2023-01-30T08:15:26.457Z,4.90
2023-01-30T08:17:57.634Z,4.43
2023-01-30T08:20:27.558Z,4.40
2023-01-30T08:22:56.679Z,5.22
2023-01-30T08:25:25.093Z,5.22
2023-01-30T08:27:53.735Z,4.78
2023-01-30T08:30:23.651Z,4.53
2023-01-30T08:32:51.747Z,5.10
2023-01-30T08:35:21.229Z,4.70
2023-01-30T08:37:49.465Z,4.73
2023-01-30T08:40:18.146Z,4.40
2023-01-30T08:42:46.881Z,4.60
2023-01-30T08:45:15.181Z,5.78
2023-01-30T08:47:43.344Z,5.07
2023-01-30T08:50:12.402Z,5.10
2023-01-30T08:52:41.855Z,5.07
2023-01-30T08:55:10.594Z,4.70
2023-01-30T08:57:38.801Z,5.38
2023-01-30T09:00:08.992Z,4.90
2023-01-30T09:02:37.158Z,4.72
2023-01-30T09:05:06.399Z,5.03
2023-01-30T09:07:35.374Z,4.78
2023-01-30T09:10:05.641Z,4.72
2023-01-30T09:12:33.938Z,4.85
2023-01-30T09:15:01.979Z,4.97
2023-01-30T09:17:30.001Z,5.13
2023-01-30T09:19:58.331Z,4.90
2023-01-30T09:22:29.281Z,5.00
2023-01-30T09:24:58.966Z,4.85
2023-01-30T09:27:28.439Z,4.65
2023-01-30T09:29:56.530Z,4.80
2023-01-30T09:32:24.729Z,4.75
2023-01-30T09:34:52.794Z,5.07
2023-01-30T09:37:20.838Z,4.90
2023-01-30T09:39:48.834Z,5.53
2023-01-30T09:42:42.880Z,5.60
2023-01-30T09:45:38.330Z,5.53
2023-01-30T09:48:19.654Z,4.97
2023-01-30T09:51:24.485Z,4.70
2023-01-30T09:54:22.003Z,4.80
2023-01-30T09:56:59.256Z,4.75
2023-01-30T09:59:38.798Z,4.97
2023-01-30T10:02:35.031Z,5.30
2023-01-30T10:05:04.297Z,4.88
2023-01-30T10:07:50.144Z,5.10
2023-01-30T10:10:30.593Z,5.13
2023-01-30T10:13:13.054Z,4.93
2023-01-30T10:15:57.814Z,5.00
2023-01-30T10:19:01.746Z,5.10
2023-01-30T10:21:47.555Z,5.47
2023-01-30T10:24:49.273Z,5.10
2023-01-30T10:27:18.825Z,4.93
2023-01-30T10:29:54.061Z,5.32
2023-01-30T10:32:31.699Z,5.43
2023-01-30T10:35:07.315Z,5.13
2023-01-30T10:37:47.593Z,4.80
2023-01-30T10:40:26.209Z,4.95
2023-01-30T10:43:04.957Z,4.93
2023-01-30T10:45:45.403Z,4.30
2023-01-30T10:48:47.059Z,4.53
2023-01-30T10:51:28.668Z,5.15
2023-01-30T10:54:03.658Z,4.80
2023-01-30T10:56:41.098Z,5.13
2023-01-30T10:59:24.141Z,4.33
2023-01-30T11:02:02.345Z,4.30
2023-01-30T11:04:40.165Z,4.80
2023-01-30T11:07:09.283Z,4.72
2023-01-30T11:09:43.563Z,4.75
2023-01-30T11:12:12.674Z,5.35
2023-01-30T11:14:56.356Z,5.13
2023-01-30T11:17:36.212Z,5.03
2023-01-30T11:20:15.074Z,4.60
2023-01-30T11:22:54.584Z,3.90
2023-01-30T11:25:24.145Z,4.03
2023-01-30T11:28:01.755Z,4.82
2023-01-30T11:30:35.206Z,5.38
2023-01-30T11:33:13.285Z,5.90
2023-01-30T11:35:54.541Z,6.88
2023-01-30T11:38:27.026Z,4.78
2023-01-30T11:41:07.523Z,4.90
2023-01-30T11:43:39.519Z,4.65
2023-01-30T11:46:09.931Z,4.07
2023-01-30T11:49:09.021Z,4.57
2023-01-30T11:51:43.326Z,4.10
2023-01-30T11:54:17.212Z,4.82
2023-01-30T11:56:52.999Z,5.18
2023-01-30T11:59:29.159Z,4.93
2023-01-30T12:02:11.790Z,4.80
2023-01-30T12:04:39.973Z,5.13
2023-01-30T12:07:18.726Z,4.80
2023-01-30T12:09:50.180Z,4.80
2023-01-30T12:12:31.413Z,5.00
2023-01-30T12:15:15.757Z,4.90
2023-01-30T12:17:52.614Z,4.63
2023-01-30T12:20:47.623Z,4.15
2023-01-30T12:23:26.641Z,3.92
2023-01-30T12:26:05.343Z,3.63
2023-01-30T12:28:45.850Z,3.22
2023-01-30T12:31:20.943Z,3.23
2023-01-30T12:33:50.438Z,3.65
2023-01-30T12:36:36.703Z,3.15
2023-01-30T12:39:30.722Z,3.80
2023-01-30T12:42:25.290Z,3.97
2023-01-30T12:45:20.661Z,3.63
2023-01-30T12:49:07.851Z,3.75
2023-01-30T12:52:00.409Z,4.25
2023-01-30T12:54:50.376Z,3.88
2023-01-30T12:57:33.809Z,4.35
2023-01-30T13:00:25.950Z,4.50
2023-01-30T13:03:16.479Z,4.35
2023-01-30T13:05:53.894Z,4.72
2023-01-30T13:08:47.619Z,4.40
2023-01-30T13:11:39.436Z,4.95
2023-01-30T13:14:19.391Z,4.38
2023-01-30T13:17:06.915Z,4.70
2023-01-30T13:19:47.807Z,4.60
2023-01-30T13:22:24.128Z,3.42
2023-01-30T13:25:04.898Z,3.67
2023-01-30T13:27:40.093Z,4.00
2023-01-30T13:30:18.000Z,3.75
2023-01-30T13:32:51.388Z,3.60
2023-01-30T13:35:25.077Z,3.50
2023-01-30T13:37:55.468Z,4.22
2023-01-30T13:40:28.802Z,4.13
2023-01-30T13:43:07.131Z,4.70
2023-01-30T13:45:45.000Z,5.75
2023-01-30T13:48:34.400Z,5.85
2023-01-30T13:51:34.352Z,4.60
2023-01-30T13:54:20.962Z,4.53
2023-01-30T13:56:58.220Z,7.28
2023-01-30T13:59:55.048Z,4.57
2023-01-30T14:02:27.019Z,4.45
2023-01-30T14:04:56.710Z,4.45
2023-01-30T14:07:30.896Z,5.03
2023-01-30T14:10:20.322Z,3.95
2023-01-30T14:12:52.015Z,4.88
2023-01-30T14:15:29.468Z,5.60
2023-01-30T14:18:07.117Z,5.13
2023-01-30T14:20:37.871Z,4.22
2023-01-30T14:23:20.567Z,4.65
2023-01-30T14:25:51.471Z,4.57
2023-01-30T14:28:50.769Z,4.72
2023-01-30T14:31:56.443Z,3.85
2023-01-30T14:35:21.247Z,3.92
2023-01-30T14:38:18.077Z,4.43
2023-01-30T14:41:28.586Z,4.82
2023-01-30T14:43:56.717Z,4.38
2023-01-30T14:46:54.438Z,4.43
2023-01-30T14:49:36.165Z,4.80
2023-01-30T14:52:05.552Z,4.75
2023-01-30T14:54:42.769Z,4.38
2023-01-30T14:57:27.555Z,4.32
2023-01-30T15:00:16.224Z,4.68
2023-01-30T15:02:53.903Z,4.35
2023-01-30T15:05:33.115Z,4.65
2023-01-30T15:08:10.126Z,4.93
2023-01-30T15:11:06.479Z,4.97
2023-01-30T15:13:59.606Z,5.50
2023-01-30T15:16:59.699Z,5.30
2023-01-30T15:19:53.690Z,15.20
2023-01-30T15:22:36.042Z,15.52
2023-01-30T15:25:41.447Z,22.30
2023-01-30T15:28:32.518Z,8.35
2023-01-30T15:31:12.164Z,16.15
2023-01-30T15:33:49.397Z,17.67
2023-01-30T15:36:26.219Z,16.00
2023-01-30T15:39:02.149Z,18.98
2023-01-30T15:41:37.666Z,5.30
2023-01-30T15:44:50.007Z,10.18
2023-01-30T15:47:39.877Z,9.05
2023-01-30T15:50:10.797Z,6.40
2023-01-30T15:52:45.055Z,5.90
2023-01-30T15:55:24.704Z,6.53
2023-01-30T15:57:57.689Z,6.38
2023-01-30T16:00:31.219Z,5.32
2023-01-30T16:03:02.842Z,7.23
2023-01-30T16:05:31.564Z,8.20
2023-01-30T16:08:18.429Z,26.77
2023-01-30T16:10:49.734Z,16.60
2023-01-30T16:13:19.911Z,16.13
2023-01-30T16:15:56.264Z,20.10
2023-01-30T16:18:32.360Z,7.05
2023-01-30T16:21:05.091Z,23.83
2023-01-30T16:23:39.502Z,6.57
2023-01-30T16:26:17.289Z,9.85
2023-01-30T16:28:46.334Z,12.63
2023-01-30T16:31:14.806Z,7.20
2023-01-30T16:33:43.005Z,7.90
2023-01-30T16:36:40.994Z,6.18
2023-01-30T16:39:29.660Z,25.95
2023-01-30T16:42:01.902Z,13.20
2023-01-30T16:44:31.559Z,8.80
2023-01-30T16:47:04.232Z,6.40
2023-01-30T16:49:47.042Z,6.25
2023-01-30T16:52:21.318Z,4.75
2023-01-30T16:54:53.129Z,4.60
2023-01-30T16:57:40.392Z,5.25
2023-01-30T17:00:22.537Z,4.15
2023-01-30T17:02:55.580Z,4.93
2023-01-30T17:05:27.066Z,4.67
2023-01-30T17:07:57.229Z,4.35
2023-01-30T17:10:55.640Z,4.20
2023-01-30T17:13:37.755Z,3.70
2023-01-30T17:16:33.915Z,3.25
2023-01-30T17:19:02.835Z,3.30
2023-01-30T17:21:39.094Z,3.50
2023-01-30T17:24:07.926Z,4.00
2023-01-30T17:26:40.514Z,4.05
2023-01-30T17:29:23.877Z,4.60
2023-01-30T17:32:02.598Z,5.60
2023-01-30T17:34:30.728Z,6.55
2023-01-30T17:36:58.832Z,6.88
2023-01-30T17:39:27.151Z,6.17
2023-01-30T17:41:55.266Z,5.45
2023-01-30T17:44:24.756Z,5.93
2023-01-30T17:46:52.884Z,5.65
2023-01-30T17:49:24.063Z,6.13
2023-01-30T17:51:53.865Z,5.82
2023-01-30T17:54:22.530Z,5.55
2023-01-30T17:56:56.755Z,5.53
2023-01-30T17:59:26.331Z,5.07
2023-01-30T18:01:55.211Z,4.50
2023-01-30T18:04:23.408Z,5.35
2023-01-30T18:06:56.778Z,5.20
2023-01-30T18:09:26.899Z,5.68
2023-01-30T18:11:55.103Z,6.15
2023-01-30T18:14:24.956Z,7.10
2023-01-30T18:16:53.411Z,5.88
2023-01-30T18:19:24.000Z,7.13
2023-01-30T18:21:52.780Z,5.93
2023-01-30T18:24:21.203Z,7.18
2023-01-30T18:26:49.343Z,5.50
2023-01-30T18:29:17.590Z,6.05
2023-01-30T18:31:47.347Z,6.80
2023-01-30T18:34:16.341Z,5.45
2023-01-30T18:36:44.603Z,5.15
2023-01-30T18:39:13.318Z,5.80
2023-01-30T18:41:41.533Z,5.25
2023-01-30T18:44:11.776Z,4.80
2023-01-30T18:46:41.390Z,5.30
2023-01-30T18:49:11.256Z,7.25
2023-01-30T18:51:40.400Z,5.30
2023-01-30T18:54:08.520Z,5.43
2023-01-30T18:56:37.751Z,5.43
2023-01-30T18:59:07.605Z,5.45
2023-01-30T19:01:38.740Z,5.40
2023-01-30T19:04:11.539Z,5.07
2023-01-30T19:06:42.658Z,5.72
2023-01-30T19:09:14.756Z,6.03
2023-01-30T19:12:00.695Z,6.67
2023-01-30T19:14:28.930Z,10.40
2023-01-30T19:16:57.432Z,5.53
2023-01-30T19:19:27.215Z,5.88
2023-01-30T19:21:55.426Z,6.28
2023-01-30T19:24:23.761Z,5.72
2023-01-30T19:26:52.307Z,5.57
2023-01-30T19:29:20.838Z,5.82
2023-01-30T19:31:49.170Z,5.95
2023-01-30T19:34:17.552Z,5.72
2023-01-30T19:36:47.042Z,6.53
2023-01-30T19:39:15.157Z,6.28
2023-01-30T19:41:43.348Z,5.80
2023-01-30T19:44:12.994Z,6.15
2023-01-30T19:46:41.304Z,6.43
2023-01-30T19:49:10.567Z,6.85
2023-01-30T19:51:38.750Z,6.57
2023-01-30T19:54:12.005Z,6.30
2023-01-30T19:56:41.872Z,6.60
2023-01-30T19:59:13.537Z,6.70
2023-01-30T20:01:41.651Z,6.82
2023-01-30T20:04:09.785Z,6.93
2023-01-30T20:06:39.511Z,6.80
2023-01-30T20:09:11.127Z,6.80
2023-01-30T20:11:41.701Z,7.27
2023-01-30T20:14:12.035Z,7.13
2023-01-30T20:16:40.926Z,7.60
2023-01-30T20:19:14.376Z,6.90
2023-01-30T20:21:43.735Z,8.85
2023-01-30T20:24:14.034Z,9.27
2023-01-30T20:26:43.062Z,6.47
2023-01-30T20:29:11.812Z,6.85
2023-01-30T20:31:40.488Z,5.85
2023-01-30T20:34:13.788Z,6.65
2023-01-30T20:36:42.259Z,6.63
2023-01-30T20:39:10.393Z,6.32
2023-01-30T20:41:39.995Z,6.78
2023-01-30T20:44:12.575Z,6.43
2023-01-30T20:46:43.051Z,7.43
2023-01-30T20:49:15.527Z,7.07
2023-01-30T20:51:45.516Z,7.37
2023-01-30T20:54:16.198Z,7.03
2023-01-30T20:56:48.128Z,7.10
2023-01-30T20:59:19.693Z,7.25
2023-01-30T21:01:48.059Z,6.95
2023-01-30T21:04:18.388Z,6.70
2023-01-30T21:06:47.350Z,7.05
2023-01-30T21:09:17.749Z,6.20
2023-01-30T21:11:48.021Z,6.38
2023-01-30T21:14:17.550Z,6.53
2023-01-30T21:16:46.271Z,6.72
2023-01-30T21:19:17.179Z,6.05
2023-01-30T21:21:50.415Z,5.57
2023-01-30T21:24:22.106Z,5.30
2023-01-30T21:26:52.725Z,5.85
2023-01-30T21:29:24.616Z,6.32
2023-01-30T21:31:53.633Z,6.45
2023-01-30T21:34:22.169Z,6.68
2023-01-30T21:37:04.362Z,5.78
2023-01-30T21:39:50.038Z,5.47
2023-01-30T21:42:36.897Z,6.25
2023-01-30T21:45:06.729Z,6.35
2023-01-30T21:47:34.868Z,6.00
2023-01-30T21:50:03.116Z,5.95
2023-01-30T21:52:33.586Z,6.07
2023-01-30T21:55:01.828Z,5.93
2023-01-30T21:57:31.228Z,6.10
2023-01-30T21:59:59.317Z,6.68
2023-01-30T22:02:27.405Z,6.10
2023-01-30T22:04:55.865Z,6.47
2023-01-30T22:07:24.008Z,6.82
2023-01-30T22:09:52.470Z,7.05
2023-01-30T22:12:20.564Z,6.15
2023-01-30T22:14:49.977Z,6.50
2023-01-30T22:17:18.014Z,6.20
2023-01-30T22:19:46.335Z,6.65
2023-01-30T22:22:14.540Z,6.75
2023-01-30T22:24:42.566Z,7.20
2023-01-30T22:27:10.618Z,7.10
2023-01-30T22:29:38.644Z,6.13
2023-01-30T22:32:08.096Z,5.68
2023-01-30T22:34:36.736Z,5.25
2023-01-30T22:37:04.943Z,5.28
2023-01-30T22:39:32.998Z,5.10
2023-01-30T22:42:01.066Z,5.40
2023-01-30T22:44:29.194Z,5.50
2023-01-30T22:46:57.335Z,5.53
2023-01-30T22:49:27.042Z,4.75
2023-01-30T22:51:55.107Z,4.85
2023-01-30T22:54:25.048Z,4.93
2023-01-30T22:56:53.312Z,4.20
2023-01-30T22:59:21.742Z,4.78
2023-01-30T23:01:51.864Z,4.20
2023-01-30T23:04:23.191Z,4.17
2023-01-30T23:06:53.420Z,4.22
2023-01-30T23:09:24.268Z,3.38
2023-01-30T23:12:13.177Z,3.65
2023-01-30T23:14:42.688Z,3.20
2023-01-30T23:17:25.237Z,3.22
2023-01-30T23:19:53.827Z,2.88
2023-01-30T23:22:23.670Z,3.22
2023-01-30T23:24:51.861Z,4.10
2023-01-30T23:27:20.311Z,3.97
2023-01-30T23:29:48.462Z,4.13
2023-01-30T23:32:19.044Z,4.00
2023-01-30T23:34:47.564Z,4.87
2023-01-30T23:37:15.724Z,4.75
2023-01-30T23:39:46.249Z,6.57
2023-01-30T23:42:14.531Z,6.83
2023-01-30T23:44:42.659Z,6.70
2023-01-30T23:47:10.724Z,5.93
2023-01-30T23:49:38.861Z,6.72
2023-01-30T23:52:07.149Z,6.28
2023-01-30T23:54:35.257Z,5.65
2023-01-30T23:57:04.724Z,5.75
2023-01-30T23:59:32.934Z,6.20
